Selfridge Angb Airport Mount Clemens US
ICAO: KMTC
IATA: MTC
Category: Medium
Scheduled Services: No

Elevation: 580 ft
TransAlt. 18000 ft.

Airport Communications:
927 ARW OPS:31.42
APP:119.6
ATIS:125.325
CLNC DEL:119
DEP:119.6
GND:128.3
USCG DETROIT AIR:38.18
WING COMD POST:148.525
PMSV/METRO:34.25
PTD:134.85
TWR:120.15

KMTC Zoom In..

If you have problems with the map follow the link
https://www.worldairports.se/pages/airport.php?
ICAO=KMTC

Runways:

(A) RW 01 length 9000 ft width 150 ft
ILS 110.10 / hdg 8

(B) RW 19 length 9000 ft width 150 ft
ILS 110.10 / hdg 188

Location; KMTC
Day. 16 / Time. 03.25 Zulu
* Altimeter: 29.84
* Temperature: 01° c. 33.8°f.
* Wind from: 190° Speed 04 kn.
Dewpoint: 01° c.
Visibility: 7 Statute Miles.
Clouds: Scattered 600 ft.
Clouds: Overcast 900 ft.

KMTC 160325Z 19004KT 7SM -RASN SCT006 OVC009 01/01 A2984 RMK AO2A SNB25 SLP115 $


Wind From 190°
Speed 04 kn.

 
 
jpsmedia.com for Web Design worldairports.se 2018   terms of use